Terminal Aerodrome Forecast
Issued by NWS

Home | Current Version | Previous Version | Text Only | Print | Product List | Glossary Off
Versions: 1 2 3 4 5 6 7 8 9 10 11 12 13 14

000
FTUS42 KMHX 252336
TAFPGV
TAF
KPGV 252336Z 2600/2624 18006KT P6SM SCT200
     FM260900 VRB03KT 5SM BR BKN200
     FM261200 VRB03KT P6SM BKN140
     FM261600 17007KT P6SM BKN070
      AMD LTD TO CLD VIS AND WIND=

USA.gov is the U.S. government's official web portal to all federal, state and local government web resources and services.